PWSweather.com
Personal Weather Stations
Station Observations
KNJSTAFF6
Village Harbor, Beach Haven West, Manahawkin, NJ 08050

Village Harbor, Beach Haven WestManahawkin, NJ 08050

Lat: 39.67889410559905, Lon: -74.24244902883606

Elevation: 15

Station Type: Oregon Scientific WMR88A

Latest ConditionsUpdated 2:48:00 AM EST Thursday, Dec 12, 2019
Currently Today's Max Today's Min Today's Average
Temperature 26.6°F-3.0°C 30.0°F-1.1°C 26.6°F-3.0°C 28.3°F-2.1°C
Dew Point 13.4°F-10.3°C 15.2°F-9.3°C 12.9°F-10.6°C 14.0°F-10.0°C
Winds 1.9 mph W3.1 kmh W 5.9 mph -9.5 kmh - - 3.6 mph 5.8 kmh
Wind Gusts 5.8 mph9.3 kmh 8.9 mph14.3 kmh - -
Humidity 57% 57% 52% 54%
Pressure 30.39 in1029.1 mb 30.39 in1029.1 mb 30.33 in1027.1 mb -
Hour Temp Dew Point Humidity Winds Wind Gusts Pressure Precip Precip Rate Daily Precip Total
02:48 AM 26.6°F-3.0°C 13.4°F-10.3°C 57% 1.9 mph W3.1 kmh W 5.8 mph9.3 kmh 30.39 in1029.1 mb 0.00 in0.0 mm 0.00 in0.0 mm 0.00 in0.0 mm
02:47 AM 26.8°F-2.9°C 13.6°F-10.2°C 57% 2.4 mph W3.9 kmh W 5.8 mph9.3 kmh 30.39 in1029.1 mb 0.00 in0.0 mm 0.00 in0.0 mm 0.00 in0.0 mm
02:46 AM 26.8°F-2.9°C 13.6°F-10.2°C 57% 2.7 mph W4.3 kmh W 5.8 mph9.3 kmh 30.39 in1029.1 mb 0.00 in0.0 mm 0.00 in0.0 mm 0.00 in0.0 mm
02:45 AM 27.0°F-2.8°C 13.3°F-10.4°C 56% 3.1 mph WNW5.0 kmh WNW 6.0 mph9.7 kmh 30.39 in1029.1 mb 0.00 in0.0 mm 0.00 in0.0 mm 0.00 in0.0 mm
02:44 AM 27.0°F-2.8°C 13.3°F-10.4°C 56% 3.3 mph WNW5.3 kmh WNW 6.0 mph9.7 kmh 30.39 in1029.1 mb 0.00 in0.0 mm 0.00 in0.0 mm 0.00 in0.0 mm
02:43 AM 27.0°F-2.8°C 13.3°F-10.4°C 56% 3.7 mph WNW6.0 kmh WNW 6.0 mph9.7 kmh 30.39 in1029.1 mb 0.00 in0.0 mm 0.00 in0.0 mm 0.00 in0.0 mm
02:42 AM 27.1°F-2.7°C 13.1°F-10.5°C 55% 3.8 mph WNW6.1 kmh WNW 6.0 mph9.7 kmh 30.39 in1029.1 mb 0.00 in0.0 mm 0.00 in0.0 mm 0.00 in0.0 mm
02:41 AM 27.1°F-2.7°C 13.1°F-10.5°C 55% 4.1 mph WNW6.6 kmh WNW 6.0 mph9.7 kmh 30.39 in1029.1 mb 0.00 in0.0 mm 0.00 in0.0 mm 0.00 in0.0 mm
02:40 AM 27.0°F-2.8°C 12.9°F-10.6°C 55% 4.0 mph WNW6.4 kmh WNW 6.0 mph9.7 kmh 30.39 in1029.1 mb 0.00 in0.0 mm 0.00 in0.0 mm 0.00 in0.0 mm
02:39 AM 27.0°F-2.8°C 12.9°F-10.6°C 55% 4.1 mph WNW6.6 kmh WNW 6.0 mph9.7 kmh 30.39 in1029.1 mb 0.00 in0.0 mm 0.00 in0.0 mm 0.00 in0.0 mm
02:38 AM 27.3°F-2.6°C 13.3°F-10.4°C 55% 4.1 mph WNW6.6 kmh WNW 6.0 mph9.7 kmh 30.39 in1029.1 mb 0.00 in0.0 mm 0.00 in0.0 mm 0.00 in0.0 mm
02:37 AM 27.3°F-2.6°C 13.3°F-10.4°C 55% 4.1 mph WNW6.6 kmh WNW 6.0 mph9.7 kmh 30.39 in1029.1 mb 0.00 in0.0 mm 0.00 in0.0 mm 0.00 in0.0 mm
02:36 AM 27.5°F-2.5°C 13.4°F-10.3°C 55% 4.1 mph NW6.6 kmh NW 6.0 mph9.7 kmh 30.39 in1029.1 mb 0.00 in0.0 mm 0.00 in0.0 mm 0.00 in0.0 mm
02:35 AM 27.5°F-2.5°C 13.4°F-10.3°C 55% 3.9 mph NW6.3 kmh NW 6.0 mph9.7 kmh 30.39 in1029.1 mb 0.00 in0.0 mm 0.00 in0.0 mm 0.00 in0.0 mm
02:34 AM 27.5°F-2.5°C 13.4°F-10.3°C 55% 3.7 mph NW6.0 kmh NW 6.5 mph10.5 kmh 30.39 in1029.1 mb 0.00 in0.0 mm 0.00 in0.0 mm 0.00 in0.0 mm
02:33 AM 27.5°F-2.5°C 13.0°F-10.6°C 54% 3.5 mph NW5.6 kmh NW 6.5 mph10.5 kmh 30.39 in1029.1 mb 0.00 in0.0 mm 0.00 in0.0 mm 0.00 in0.0 mm
02:32 AM 27.5°F-2.5°C 13.0°F-10.6°C 54% 3.5 mph NW5.6 kmh NW 6.5 mph10.5 kmh 30.39 in1029.1 mb 0.00 in0.0 mm 0.00 in0.0 mm 0.00 in0.0 mm
02:31 AM 27.7°F-2.4°C 13.2°F-10.4°C 54% 3.5 mph NW5.6 kmh NW 6.5 mph10.5 kmh 30.39 in1029.1 mb 0.00 in0.0 mm 0.00 in0.0 mm 0.00 in0.0 mm
02:30 AM 27.7°F-2.4°C 13.2°F-10.4°C 54% 3.6 mph NW5.8 kmh NW 6.5 mph10.5 kmh 30.39 in1029.1 mb 0.00 in0.0 mm 0.00 in0.0 mm 0.00 in0.0 mm
02:29 AM 27.9°F-2.3°C 13.3°F-10.4°C 54% 3.8 mph NW6.1 kmh NW 7.2 mph11.6 kmh 30.39 in1029.1 mb 0.00 in0.0 mm 0.00 in0.0 mm 0.00 in0.0 mm
02:28 AM 27.9°F-2.3°C 13.3°F-10.4°C 54% 4.1 mph NW6.6 kmh NW 7.2 mph11.6 kmh 30.39 in1029.1 mb 0.00 in0.0 mm 0.00 in0.0 mm 0.00 in0.0 mm
02:27 AM 27.7°F-2.4°C 13.6°F-10.2°C 55% 3.8 mph NW6.1 kmh NW 7.2 mph11.6 kmh 30.39 in1029.1 mb 0.00 in0.0 mm 0.00 in0.0 mm 0.00 in0.0 mm
02:26 AM 27.7°F-2.4°C 13.6°F-10.2°C 55% 3.5 mph NW5.6 kmh NW 7.2 mph11.6 kmh 30.39 in1029.1 mb 0.00 in0.0 mm 0.00 in0.0 mm 0.00 in0.0 mm
02:25 AM 27.7°F-2.4°C 13.6°F-10.2°C 55% 3.4 mph NW5.5 kmh NW 7.2 mph11.6 kmh 30.39 in1029.1 mb 0.00 in0.0 mm 0.00 in0.0 mm 0.00 in0.0 mm
02:24 AM 27.9°F-2.3°C 13.3°F-10.4°C 54% 3.2 mph NW5.1 kmh NW 7.2 mph11.6 kmh 30.39 in1029.1 mb 0.00 in0.0 mm 0.00 in0.0 mm 0.00 in0.0 mm
02:23 AM 27.9°F-2.3°C 13.3°F-10.4°C 54% 2.9 mph NW4.7 kmh NW 7.2 mph11.6 kmh 30.39 in1029.1 mb 0.00 in0.0 mm 0.00 in0.0 mm 0.00 in0.0 mm
02:22 AM 27.9°F-2.3°C 13.3°F-10.4°C 54% 3.1 mph NW5.0 kmh NW 7.2 mph11.6 kmh 30.39 in1029.1 mb 0.00 in0.0 mm 0.00 in0.0 mm 0.00 in0.0 mm
02:21 AM 27.9°F-2.3°C 13.3°F-10.4°C 54% 3.3 mph NW5.3 kmh NW 7.2 mph11.6 kmh 30.39 in1029.1 mb 0.00 in0.0 mm 0.00 in0.0 mm 0.00 in0.0 mm
02:20 AM 27.9°F-2.3°C 13.3°F-10.4°C 54% 2.9 mph NW4.7 kmh NW 7.2 mph11.6 kmh 30.39 in1029.1 mb 0.00 in0.0 mm 0.00 in0.0 mm 0.00 in0.0 mm
02:19 AM 27.9°F-2.3°C 13.8°F-10.1°C 55% 2.6 mph NW4.2 kmh NW 7.2 mph11.6 kmh 30.39 in1029.1 mb 0.00 in0.0 mm 0.00 in0.0 mm 0.00 in0.0 mm
02:18 AM 27.9°F-2.3°C 13.8°F-10.1°C 55% 2.4 mph WNW3.9 kmh WNW 4.9 mph7.9 kmh 30.39 in1029.1 mb 0.00 in0.0 mm 0.00 in0.0 mm 0.00 in0.0 mm
02:16 AM 27.9°F-2.3°C 13.8°F-10.1°C 55% 3.0 mph WNW4.8 kmh WNW 4.9 mph7.9 kmh 30.39 in1029.1 mb 0.00 in0.0 mm 0.00 in0.0 mm 0.00 in0.0 mm
02:15 AM 27.9°F-2.3°C 13.8°F-10.1°C 55% 3.3 mph WNW5.3 kmh WNW 6.5 mph10.5 kmh 30.39 in1029.1 mb 0.00 in0.0 mm 0.00 in0.0 mm 0.00 in0.0 mm
02:14 AM 27.9°F-2.3°C 13.8°F-10.1°C 55% 3.3 mph WNW5.3 kmh WNW 6.5 mph10.5 kmh 30.39 in1029.1 mb 0.00 in0.0 mm 0.00 in0.0 mm 0.00 in0.0 mm
02:13 AM 28.0°F-2.2°C 13.5°F-10.3°C 54% 3.7 mph WNW6.0 kmh WNW 6.5 mph10.5 kmh 30.39 in1029.1 mb 0.00 in0.0 mm 0.00 in0.0 mm 0.00 in0.0 mm
02:12 AM 27.9°F-2.3°C 13.3°F-10.4°C 54% 3.9 mph WNW6.3 kmh WNW 6.5 mph10.5 kmh 30.39 in1029.1 mb 0.00 in0.0 mm 0.00 in0.0 mm 0.00 in0.0 mm
02:11 AM 27.9°F-2.3°C 13.3°F-10.4°C 54% 4.0 mph WNW6.4 kmh WNW 6.5 mph10.5 kmh 30.39 in1029.1 mb 0.00 in0.0 mm 0.00 in0.0 mm 0.00 in0.0 mm
02:10 AM 28.0°F-2.2°C 13.5°F-10.3°C 54% 4.4 mph WNW7.1 kmh WNW 6.5 mph10.5 kmh 30.39 in1029.1 mb 0.00 in0.0 mm 0.00 in0.0 mm 0.00 in0.0 mm
02:09 AM 28.0°F-2.2°C 13.5°F-10.3°C 54% 4.6 mph WNW7.4 kmh WNW 6.5 mph10.5 kmh 30.39 in1029.1 mb 0.00 in0.0 mm 0.00 in0.0 mm 0.00 in0.0 mm
02:08 AM 28.0°F-2.2°C 13.5°F-10.3°C 54% 4.9 mph WNW7.9 kmh WNW 8.9 mph14.3 kmh 30.39 in1029.1 mb 0.00 in0.0 mm 0.00 in0.0 mm 0.00 in0.0 mm
02:07 AM 28.0°F-2.2°C 13.5°F-10.3°C 54% 4.8 mph NW7.7 kmh NW 8.9 mph14.3 kmh 30.39 in1029.1 mb 0.00 in0.0 mm 0.00 in0.0 mm 0.00 in0.0 mm
02:06 AM 28.0°F-2.2°C 13.5°F-10.3°C 54% 5.0 mph NW8.0 kmh NW 8.9 mph14.3 kmh 30.39 in1029.1 mb 0.00 in0.0 mm 0.00 in0.0 mm 0.00 in0.0 mm
02:05 AM 28.0°F-2.2°C 13.5°F-10.3°C 54% 4.9 mph NW7.9 kmh NW 8.9 mph14.3 kmh 30.39 in1029.1 mb 0.00 in0.0 mm 0.00 in0.0 mm 0.00 in0.0 mm
02:04 AM 28.0°F-2.2°C 13.5°F-10.3°C 54% 5.1 mph NW8.2 kmh NW 8.9 mph14.3 kmh 30.39 in1029.1 mb 0.00 in0.0 mm 0.00 in0.0 mm 0.00 in0.0 mm
02:03 AM 28.2°F-2.1°C 13.3°F-10.4°C 53% 5.6 mph NW9.0 kmh NW 8.9 mph14.3 kmh 30.39 in1029.1 mb 0.00 in0.0 mm 0.00 in0.0 mm 0.00 in0.0 mm
02:02 AM 28.2°F-2.1°C 13.3°F-10.4°C 53% 5.8 mph NW9.3 kmh NW 8.9 mph14.3 kmh 30.39 in1029.1 mb 0.00 in0.0 mm 0.00 in0.0 mm 0.00 in0.0 mm
02:01 AM 28.2°F-2.1°C 13.3°F-10.4°C 53% 5.9 mph NW9.5 kmh NW 8.9 mph14.3 kmh 30.39 in1029.1 mb 0.00 in0.0 mm 0.00 in0.0 mm 0.00 in0.0 mm
02:00 AM 28.2°F-2.1°C 13.3°F-10.4°C 53% 5.9 mph NW9.5 kmh NW 8.9 mph14.3 kmh 30.39 in1029.1 mb 0.00 in0.0 mm 0.00 in0.0 mm 0.00 in0.0 mm
01:59 AM 28.2°F-2.1°C 13.7°F-10.2°C 54% 5.8 mph NW9.3 kmh NW 8.9 mph14.3 kmh 30.39 in1029.1 mb 0.00 in0.0 mm 0.00 in0.0 mm 0.00 in0.0 mm
01:58 AM 28.2°F-2.1°C 13.7°F-10.2°C 54% 5.5 mph NW8.9 kmh NW 8.7 mph14.0 kmh 30.39 in1029.1 mb 0.00 in0.0 mm 0.00 in0.0 mm 0.00 in0.0 mm
01:57 AM 28.2°F-2.1°C 13.3°F-10.4°C 53% 5.8 mph NW9.3 kmh NW 8.7 mph14.0 kmh 30.39 in1029.1 mb 0.00 in0.0 mm 0.00 in0.0 mm 0.00 in0.0 mm
01:56 AM 28.2°F-2.1°C 13.3°F-10.4°C 53% 5.8 mph NW9.3 kmh NW 8.7 mph14.0 kmh 30.39 in1029.1 mb 0.00 in0.0 mm 0.00 in0.0 mm 0.00 in0.0 mm
01:55 AM 28.2°F-2.1°C 13.3°F-10.4°C 53% 5.6 mph NW9.0 kmh NW 8.7 mph14.0 kmh 30.39 in1029.1 mb 0.00 in0.0 mm 0.00 in0.0 mm 0.00 in0.0 mm
01:54 AM 28.2°F-2.1°C 13.3°F-10.4°C 53% 5.6 mph NW9.0 kmh NW 8.7 mph14.0 kmh 30.39 in1029.1 mb 0.00 in0.0 mm 0.00 in0.0 mm 0.00 in0.0 mm
01:53 AM 28.2°F-2.1°C 13.3°F-10.4°C 53% 5.1 mph NW8.2 kmh NW 8.7 mph14.0 kmh 30.39 in1029.1 mb 0.00 in0.0 mm 0.00 in0.0 mm 0.00 in0.0 mm
01:52 AM 28.0°F-2.2°C 13.5°F-10.3°C 54% 4.7 mph NW7.6 kmh NW 8.5 mph13.7 kmh 30.39 in1029.1 mb 0.00 in0.0 mm 0.00 in0.0 mm 0.00 in0.0 mm
01:51 AM 28.0°F-2.2°C 13.5°F-10.3°C 54% 4.3 mph NW6.9 kmh NW 6.5 mph10.5 kmh 30.39 in1029.1 mb 0.00 in0.0 mm 0.00 in0.0 mm 0.00 in0.0 mm
01:50 AM 28.0°F-2.2°C 13.5°F-10.3°C 54% 4.1 mph NW6.6 kmh NW 6.5 mph10.5 kmh 30.39 in1029.1 mb 0.00 in0.0 mm 0.00 in0.0 mm 0.00 in0.0 mm
01:49 AM 28.0°F-2.2°C 13.5°F-10.3°C 54% 4.3 mph NW6.9 kmh NW 6.5 mph10.5 kmh 30.36 in1028.1 mb 0.00 in0.0 mm 0.00 in0.0 mm 0.00 in0.0 mm
01:48 AM 28.0°F-2.2°C 13.5°F-10.3°C 54% 4.3 mph NW6.9 kmh NW 6.5 mph10.5 kmh 30.36 in1028.1 mb 0.00 in0.0 mm 0.00 in0.0 mm 0.00 in0.0 mm
01:47 AM 28.0°F-2.2°C 13.5°F-10.3°C 54% 4.2 mph NW6.8 kmh NW 6.5 mph10.5 kmh 30.36 in1028.1 mb 0.00 in0.0 mm 0.00 in0.0 mm 0.00 in0.0 mm
01:46 AM 28.0°F-2.2°C 13.5°F-10.3°C 54% 4.2 mph NW6.8 kmh NW 6.5 mph10.5 kmh 30.36 in1028.1 mb 0.00 in0.0 mm 0.00 in0.0 mm 0.00 in0.0 mm
01:45 AM 28.0°F-2.2°C 13.9°F-10.1°C 55% 4.4 mph NW7.1 kmh NW 6.5 mph10.5 kmh 30.36 in1028.1 mb 0.00 in0.0 mm 0.00 in0.0 mm 0.00 in0.0 mm
01:44 AM 28.0°F-2.2°C 13.9°F-10.1°C 55% 4.6 mph NW7.4 kmh NW 6.5 mph10.5 kmh 30.36 in1028.1 mb 0.00 in0.0 mm 0.00 in0.0 mm 0.00 in0.0 mm
01:43 AM 28.0°F-2.2°C 13.9°F-10.1°C 55% 4.6 mph NW7.4 kmh NW 6.5 mph10.5 kmh 30.36 in1028.1 mb 0.00 in0.0 mm 0.00 in0.0 mm 0.00 in0.0 mm
01:42 AM 28.0°F-2.2°C 13.9°F-10.1°C 55% 4.6 mph NW7.4 kmh NW 6.5 mph10.5 kmh 30.36 in1028.1 mb 0.00 in0.0 mm 0.00 in0.0 mm 0.00 in0.0 mm
01:41 AM 28.0°F-2.2°C 13.9°F-10.1°C 55% 4.2 mph NW6.8 kmh NW 6.5 mph10.5 kmh 30.36 in1028.1 mb 0.00 in0.0 mm 0.00 in0.0 mm 0.00 in0.0 mm
01:40 AM 28.0°F-2.2°C 13.9°F-10.1°C 55% 4.4 mph NW7.1 kmh NW 6.5 mph10.5 kmh 30.36 in1028.1 mb 0.00 in0.0 mm 0.00 in0.0 mm 0.00 in0.0 mm
01:39 AM 28.0°F-2.2°C 13.9°F-10.1°C 55% 4.1 mph NW6.6 kmh NW 6.5 mph10.5 kmh 30.36 in1028.1 mb 0.00 in0.0 mm 0.00 in0.0 mm 0.00 in0.0 mm
01:38 AM 28.0°F-2.2°C 13.9°F-10.1°C 55% 4.0 mph NW6.4 kmh NW 6.5 mph10.5 kmh 30.36 in1028.1 mb 0.00 in0.0 mm 0.00 in0.0 mm 0.00 in0.0 mm
01:37 AM 28.0°F-2.2°C 13.9°F-10.1°C 55% 3.9 mph NW6.3 kmh NW 6.5 mph10.5 kmh 30.36 in1028.1 mb 0.00 in0.0 mm 0.00 in0.0 mm 0.00 in0.0 mm
01:36 AM 28.0°F-2.2°C 13.5°F-10.3°C 54% 3.7 mph NW6.0 kmh NW 6.5 mph10.5 kmh 30.36 in1028.1 mb 0.00 in0.0 mm 0.00 in0.0 mm 0.00 in0.0 mm
01:35 AM 28.0°F-2.2°C 13.5°F-10.3°C 54% 3.6 mph NW5.8 kmh NW 6.5 mph10.5 kmh 30.36 in1028.1 mb 0.00 in0.0 mm 0.00 in0.0 mm 0.00 in0.0 mm
01:34 AM 27.9°F-2.3°C 13.8°F-10.1°C 55% 3.2 mph NW5.1 kmh NW 5.8 mph9.3 kmh 30.36 in1028.1 mb 0.00 in0.0 mm 0.00 in0.0 mm 0.00 in0.0 mm
01:33 AM 28.0°F-2.2°C 13.9°F-10.1°C 55% 3.0 mph NW4.8 kmh NW 5.4 mph8.7 kmh 30.36 in1028.1 mb 0.00 in0.0 mm 0.00 in0.0 mm 0.00 in0.0 mm
01:32 AM 28.0°F-2.2°C 13.9°F-10.1°C 55% 3.1 mph NW5.0 kmh NW 5.4 mph8.7 kmh 30.36 in1028.1 mb 0.00 in0.0 mm 0.00 in0.0 mm 0.00 in0.0 mm
01:31 AM 28.0°F-2.2°C 13.9°F-10.1°C 55% 3.0 mph NW4.8 kmh NW 5.4 mph8.7 kmh 30.36 in1028.1 mb 0.00 in0.0 mm 0.00 in0.0 mm 0.00 in0.0 mm
01:30 AM 28.0°F-2.2°C 13.9°F-10.1°C 55% 2.8 mph NW4.5 kmh NW 5.4 mph8.7 kmh 30.36 in1028.1 mb 0.00 in0.0 mm 0.00 in0.0 mm 0.00 in0.0 mm
01:29 AM 28.0°F-2.2°C 14.3°F-9.8°C 56% 2.7 mph NW4.3 kmh NW 5.4 mph8.7 kmh 30.36 in1028.1 mb 0.00 in0.0 mm 0.00 in0.0 mm 0.00 in0.0 mm
01:28 AM 28.0°F-2.2°C 14.3°F-9.8°C 56% 2.5 mph NW4.0 kmh NW 5.4 mph8.7 kmh 30.36 in1028.1 mb 0.00 in0.0 mm 0.00 in0.0 mm 0.00 in0.0 mm
01:27 AM 28.0°F-2.2°C 13.9°F-10.1°C 55% 2.4 mph NW3.9 kmh NW 5.4 mph8.7 kmh 30.36 in1028.1 mb 0.00 in0.0 mm 0.00 in0.0 mm 0.00 in0.0 mm
01:26 AM 28.0°F-2.2°C 13.9°F-10.1°C 55% 2.4 mph NW3.9 kmh NW 5.4 mph8.7 kmh 30.36 in1028.1 mb 0.00 in0.0 mm 0.00 in0.0 mm 0.00 in0.0 mm
01:25 AM 28.0°F-2.2°C 13.9°F-10.1°C 55% 2.7 mph NW4.3 kmh NW 5.6 mph9.0 kmh 30.36 in1028.1 mb 0.00 in0.0 mm 0.00 in0.0 mm 0.00 in0.0 mm
01:24 AM 27.9°F-2.3°C 14.2°F-9.9°C 56% 2.6 mph WNW4.2 kmh WNW 5.6 mph9.0 kmh 30.36 in1028.1 mb 0.00 in0.0 mm 0.00 in0.0 mm 0.00 in0.0 mm
01:23 AM 27.9°F-2.3°C 14.2°F-9.9°C 56% 2.8 mph WNW4.5 kmh WNW 5.6 mph9.0 kmh 30.36 in1028.1 mb 0.00 in0.0 mm 0.00 in0.0 mm 0.00 in0.0 mm
01:22 AM 27.9°F-2.3°C 13.8°F-10.1°C 55% 2.8 mph NW4.5 kmh NW 5.6 mph9.0 kmh 30.36 in1028.1 mb 0.00 in0.0 mm 0.00 in0.0 mm 0.00 in0.0 mm
01:21 AM 27.9°F-2.3°C 13.8°F-10.1°C 55% 2.8 mph WNW4.5 kmh WNW 5.6 mph9.0 kmh 30.36 in1028.1 mb 0.00 in0.0 mm 0.00 in0.0 mm 0.00 in0.0 mm
01:20 AM 28.0°F-2.2°C 13.9°F-10.1°C 55% 2.9 mph WNW4.7 kmh WNW 5.6 mph9.0 kmh 30.36 in1028.1 mb 0.00 in0.0 mm 0.00 in0.0 mm 0.00 in0.0 mm
01:19 AM 28.0°F-2.2°C 13.9°F-10.1°C 55% 2.8 mph WNW4.5 kmh WNW 5.6 mph9.0 kmh 30.36 in1028.1 mb 0.00 in0.0 mm 0.00 in0.0 mm 0.00 in0.0 mm
01:18 AM 28.0°F-2.2°C 13.9°F-10.1°C 55% 3.2 mph WNW5.1 kmh WNW 5.6 mph9.0 kmh 30.36 in1028.1 mb 0.00 in0.0 mm 0.00 in0.0 mm 0.00 in0.0 mm
01:17 AM 28.2°F-2.1°C 14.5°F-9.7°C 56% 3.2 mph WNW5.1 kmh WNW 5.6 mph9.0 kmh 30.36 in1028.1 mb 0.00 in0.0 mm 0.00 in0.0 mm 0.00 in0.0 mm
01:16 AM 28.2°F-2.1°C 14.5°F-9.7°C 56% 3.1 mph NW5.0 kmh NW 5.6 mph9.0 kmh 30.36 in1028.1 mb 0.00 in0.0 mm 0.00 in0.0 mm 0.00 in0.0 mm
01:15 AM 28.2°F-2.1°C 14.1°F-9.9°C 55% 3.1 mph WNW5.0 kmh WNW 5.6 mph9.0 kmh 30.36 in1028.1 mb 0.00 in0.0 mm 0.00 in0.0 mm 0.00 in0.0 mm
01:14 AM 28.2°F-2.1°C 14.1°F-9.9°C 55% 3.0 mph WNW4.8 kmh WNW 5.6 mph9.0 kmh 30.36 in1028.1 mb 0.00 in0.0 mm 0.00 in0.0 mm 0.00 in0.0 mm
01:13 AM 28.2°F-2.1°C 14.1°F-9.9°C 55% 3.2 mph WNW5.1 kmh WNW 5.6 mph9.0 kmh 30.36 in1028.1 mb 0.00 in0.0 mm 0.00 in0.0 mm 0.00 in0.0 mm
01:12 AM 28.2°F-2.1°C 14.1°F-9.9°C 55% 3.2 mph WNW5.1 kmh WNW 5.6 mph9.0 kmh 30.36 in1028.1 mb 0.00 in0.0 mm 0.00 in0.0 mm 0.00 in0.0 mm
01:11 AM 28.4°F-2.0°C 13.9°F-10.1°C 54% 3.1 mph NW5.0 kmh NW 5.6 mph9.0 kmh 30.36 in1028.1 mb 0.00 in0.0 mm 0.00 in0.0 mm 0.00 in0.0 mm
01:10 AM 28.4°F-2.0°C 13.9°F-10.1°C 54% 3.3 mph NW5.3 kmh NW 5.6 mph9.0 kmh 30.36 in1028.1 mb 0.00 in0.0 mm 0.00 in0.0 mm 0.00 in0.0 mm
01:09 AM 28.4°F-2.0°C 13.9°F-10.1°C 54% 3.3 mph NW5.3 kmh NW 5.6 mph9.0 kmh 30.36 in1028.1 mb 0.00 in0.0 mm 0.00 in0.0 mm 0.00 in0.0 mm
01:08 AM 28.6°F-1.9°C 14.0°F-10.0°C 54% 3.2 mph NW5.1 kmh NW 6.3 mph10.1 kmh 30.36 in1028.1 mb 0.00 in0.0 mm 0.00 in0.0 mm 0.00 in0.0 mm
01:07 AM 28.6°F-1.9°C 14.0°F-10.0°C 54% 3.5 mph NW5.6 kmh NW 6.3 mph10.1 kmh 30.36 in1028.1 mb 0.00 in0.0 mm 0.00 in0.0 mm 0.00 in0.0 mm
01:06 AM 28.6°F-1.9°C 14.0°F-10.0°C 54% 3.6 mph NW5.8 kmh NW 6.3 mph10.1 kmh 30.36 in1028.1 mb 0.00 in0.0 mm 0.00 in0.0 mm 0.00 in0.0 mm
01:05 AM 28.6°F-1.9°C 14.0°F-10.0°C 54% 3.4 mph NW5.5 kmh NW 6.3 mph10.1 kmh 30.36 in1028.1 mb 0.00 in0.0 mm 0.00 in0.0 mm 0.00 in0.0 mm
01:04 AM 28.6°F-1.9°C 14.0°F-10.0°C 54% 3.4 mph NW5.5 kmh NW 6.3 mph10.1 kmh 30.36 in1028.1 mb 0.00 in0.0 mm 0.00 in0.0 mm 0.00 in0.0 mm
01:03 AM 28.6°F-1.9°C 14.0°F-10.0°C 54% 3.4 mph NW5.5 kmh NW 6.3 mph10.1 kmh 30.36 in1028.1 mb 0.00 in0.0 mm 0.00 in0.0 mm 0.00 in0.0 mm
01:02 AM 28.6°F-1.9°C 14.0°F-10.0°C 54% 3.6 mph NW5.8 kmh NW 6.3 mph10.1 kmh 30.36 in1028.1 mb 0.00 in0.0 mm 0.00 in0.0 mm 0.00 in0.0 mm
01:01 AM 28.4°F-2.0°C 14.3°F-9.8°C 55% 3.7 mph NW6.0 kmh NW 6.3 mph10.1 kmh 30.36 in1028.1 mb 0.00 in0.0 mm 0.00 in0.0 mm 0.00 in0.0 mm
01:00 AM 28.4°F-2.0°C 14.3°F-9.8°C 55% 3.8 mph NW6.1 kmh NW 6.3 mph10.1 kmh 30.36 in1028.1 mb 0.00 in0.0 mm 0.00 in0.0 mm 0.00 in0.0 mm
12:59 AM 28.4°F-2.0°C 14.3°F-9.8°C 55% 3.5 mph NW5.6 kmh NW 6.3 mph10.1 kmh 30.36 in1028.1 mb 0.00 in0.0 mm 0.00 in0.0 mm 0.00 in0.0 mm
12:58 AM 28.4°F-2.0°C 14.3°F-9.8°C 55% 3.3 mph NW5.3 kmh NW 6.3 mph10.1 kmh 30.36 in1028.1 mb 0.00 in0.0 mm 0.00 in0.0 mm 0.00 in0.0 mm
12:57 AM 28.6°F-1.9°C 14.0°F-10.0°C 54% 2.9 mph WNW4.7 kmh WNW 5.8 mph9.3 kmh 30.36 in1028.1 mb 0.00 in0.0 mm 0.00 in0.0 mm 0.00 in0.0 mm
12:56 AM 28.6°F-1.9°C 14.0°F-10.0°C 54% 2.9 mph WNW4.7 kmh WNW 5.6 mph9.0 kmh 30.36 in1028.1 mb 0.00 in0.0 mm 0.00 in0.0 mm 0.00 in0.0 mm
12:55 AM 28.6°F-1.9°C 14.0°F-10.0°C 54% 3.0 mph WNW4.8 kmh WNW 5.6 mph9.0 kmh 30.36 in1028.1 mb 0.00 in0.0 mm 0.00 in0.0 mm 0.00 in0.0 mm
12:54 AM 28.6°F-1.9°C 13.6°F-10.2°C 53% 2.9 mph WNW4.7 kmh WNW 5.6 mph9.0 kmh 30.36 in1028.1 mb 0.00 in0.0 mm 0.00 in0.0 mm 0.00 in0.0 mm
12:53 AM 28.6°F-1.9°C 13.6°F-10.2°C 53% 2.6 mph WNW4.2 kmh WNW 5.6 mph9.0 kmh 30.36 in1028.1 mb 0.00 in0.0 mm 0.00 in0.0 mm 0.00 in0.0 mm
12:52 AM 28.6°F-1.9°C 14.4°F-9.8°C 55% 2.4 mph WNW3.9 kmh WNW 5.6 mph9.0 kmh 30.36 in1028.1 mb 0.00 in0.0 mm 0.00 in0.0 mm 0.00 in0.0 mm
12:51 AM 28.6°F-1.9°C 14.4°F-9.8°C 55% 2.2 mph NW3.5 kmh NW 5.6 mph9.0 kmh 30.36 in1028.1 mb 0.00 in0.0 mm 0.00 in0.0 mm 0.00 in0.0 mm
12:50 AM 28.6°F-1.9°C 14.4°F-9.8°C 55% 2.2 mph NW3.5 kmh NW 5.6 mph9.0 kmh 30.36 in1028.1 mb 0.00 in0.0 mm 0.00 in0.0 mm 0.00 in0.0 mm
12:49 AM 28.6°F-1.9°C 14.4°F-9.8°C 55% 2.2 mph NW3.5 kmh NW 5.6 mph9.0 kmh 30.36 in1028.1 mb 0.00 in0.0 mm 0.00 in0.0 mm 0.00 in0.0 mm
12:48 AM 28.6°F-1.9°C 14.0°F-10.0°C 54% 2.5 mph NW4.0 kmh NW 5.6 mph9.0 kmh 30.36 in1028.1 mb 0.00 in0.0 mm 0.00 in0.0 mm 0.00 in0.0 mm
12:47 AM 28.6°F-1.9°C 14.4°F-9.8°C 55% 2.7 mph WNW4.3 kmh WNW 5.6 mph9.0 kmh 30.36 in1028.1 mb 0.00 in0.0 mm 0.00 in0.0 mm 0.00 in0.0 mm
12:46 AM 28.6°F-1.9°C 14.4°F-9.8°C 55% 3.0 mph WNW4.8 kmh WNW 5.6 mph9.0 kmh 30.36 in1028.1 mb 0.00 in0.0 mm 0.00 in0.0 mm 0.00 in0.0 mm
12:45 AM 28.9°F-1.7°C 14.4°F-9.8°C 54% 3.1 mph WNW5.0 kmh WNW 5.4 mph8.7 kmh 30.36 in1028.1 mb 0.00 in0.0 mm 0.00 in0.0 mm 0.00 in0.0 mm
12:44 AM 28.9°F-1.7°C 14.4°F-9.8°C 54% 3.2 mph WNW5.1 kmh WNW 5.4 mph8.7 kmh 30.36 in1028.1 mb 0.00 in0.0 mm 0.00 in0.0 mm 0.00 in0.0 mm
12:43 AM 28.9°F-1.7°C 14.4°F-9.8°C 54% 3.5 mph WNW5.6 kmh WNW 5.4 mph8.7 kmh 30.36 in1028.1 mb 0.00 in0.0 mm 0.00 in0.0 mm 0.00 in0.0 mm
12:42 AM 28.9°F-1.7°C 14.4°F-9.8°C 54% 3.5 mph WNW5.6 kmh WNW 5.4 mph8.7 kmh 30.36 in1028.1 mb 0.00 in0.0 mm 0.00 in0.0 mm 0.00 in0.0 mm
12:41 AM 28.9°F-1.7°C 14.4°F-9.8°C 54% 3.7 mph WNW6.0 kmh WNW 5.4 mph8.7 kmh 30.36 in1028.1 mb 0.00 in0.0 mm 0.00 in0.0 mm 0.00 in0.0 mm
12:40 AM 28.9°F-1.7°C 14.4°F-9.8°C 54% 3.9 mph WNW6.3 kmh WNW 6.5 mph10.5 kmh 30.36 in1028.1 mb 0.00 in0.0 mm 0.00 in0.0 mm 0.00 in0.0 mm
12:39 AM 28.9°F-1.7°C 14.4°F-9.8°C 54% 3.9 mph WNW6.3 kmh WNW 6.5 mph10.5 kmh 30.36 in1028.1 mb 0.00 in0.0 mm 0.00 in0.0 mm 0.00 in0.0 mm
12:38 AM 28.9°F-1.7°C 14.8°F-9.6°C 55% 4.1 mph WNW6.6 kmh WNW 6.5 mph10.5 kmh 30.36 in1028.1 mb 0.00 in0.0 mm 0.00 in0.0 mm 0.00 in0.0 mm
12:37 AM 28.9°F-1.7°C 14.8°F-9.6°C 55% 4.1 mph WNW6.6 kmh WNW 6.5 mph10.5 kmh 30.36 in1028.1 mb 0.00 in0.0 mm 0.00 in0.0 mm 0.00 in0.0 mm
12:36 AM 28.8°F-1.8°C 14.2°F-9.9°C 54% 4.0 mph NW6.4 kmh NW 6.5 mph10.5 kmh 30.36 in1028.1 mb 0.00 in0.0 mm 0.00 in0.0 mm 0.00 in0.0 mm
12:35 AM 28.8°F-1.8°C 14.2°F-9.9°C 54% 3.9 mph NW6.3 kmh NW 6.5 mph10.5 kmh 30.36 in1028.1 mb 0.00 in0.0 mm 0.00 in0.0 mm 0.00 in0.0 mm
12:34 AM 28.9°F-1.7°C 13.9°F-10.1°C 53% 4.0 mph NW6.4 kmh NW 6.5 mph10.5 kmh 30.36 in1028.1 mb 0.00 in0.0 mm 0.00 in0.0 mm 0.00 in0.0 mm
12:33 AM 29.3°F-1.5°C 14.3°F-9.8°C 53% 4.1 mph NW6.6 kmh NW 6.5 mph10.5 kmh 30.36 in1028.1 mb 0.00 in0.0 mm 0.00 in0.0 mm 0.00 in0.0 mm
12:32 AM 29.3°F-1.5°C 14.3°F-9.8°C 53% 4.0 mph NW6.4 kmh NW 6.5 mph10.5 kmh 30.36 in1028.1 mb 0.00 in0.0 mm 0.00 in0.0 mm 0.00 in0.0 mm
12:31 AM 29.1°F-1.6°C 14.9°F-9.5°C 55% 4.0 mph NW6.4 kmh NW 6.5 mph10.5 kmh 30.36 in1028.1 mb 0.00 in0.0 mm 0.00 in0.0 mm 0.00 in0.0 mm
12:30 AM 29.1°F-1.6°C 14.9°F-9.5°C 55% 3.8 mph NW6.1 kmh NW 6.5 mph10.5 kmh 30.36 in1028.1 mb 0.00 in0.0 mm 0.00 in0.0 mm 0.00 in0.0 mm
12:29 AM 28.9°F-1.7°C 14.8°F-9.6°C 55% 3.6 mph NW5.8 kmh NW 6.0 mph9.7 kmh 30.36 in1028.1 mb 0.00 in0.0 mm 0.00 in0.0 mm 0.00 in0.0 mm
12:28 AM 28.9°F-1.7°C 14.8°F-9.6°C 55% 3.6 mph NW5.8 kmh NW 6.0 mph9.7 kmh 30.36 in1028.1 mb 0.00 in0.0 mm 0.00 in0.0 mm 0.00 in0.0 mm
12:27 AM 29.1°F-1.6°C 14.9°F-9.5°C 55% 3.4 mph NW5.5 kmh NW 6.0 mph9.7 kmh 30.36 in1028.1 mb 0.00 in0.0 mm 0.00 in0.0 mm 0.00 in0.0 mm
12:26 AM 29.1°F-1.6°C 14.9°F-9.5°C 55% 3.4 mph NW5.5 kmh NW 6.0 mph9.7 kmh 30.36 in1028.1 mb 0.00 in0.0 mm 0.00 in0.0 mm 0.00 in0.0 mm
12:25 AM 29.3°F-1.5°C 14.3°F-9.8°C 53% 3.3 mph NW5.3 kmh NW 6.0 mph9.7 kmh 30.36 in1028.1 mb 0.00 in0.0 mm 0.00 in0.0 mm 0.00 in0.0 mm
12:24 AM 28.9°F-1.7°C 15.2°F-9.3°C 56% 3.1 mph NW5.0 kmh NW 4.3 mph6.9 kmh 30.36 in1028.1 mb 0.00 in0.0 mm 0.00 in0.0 mm 0.00 in0.0 mm
12:23 AM 28.9°F-1.7°C 15.2°F-9.3°C 56% 3.0 mph NW4.8 kmh NW 4.3 mph6.9 kmh 30.36 in1028.1 mb 0.00 in0.0 mm 0.00 in0.0 mm 0.00 in0.0 mm
12:22 AM 28.9°F-1.7°C 14.8°F-9.6°C 55% 2.9 mph NW4.7 kmh NW 4.3 mph6.9 kmh 30.36 in1028.1 mb 0.00 in0.0 mm 0.00 in0.0 mm 0.00 in0.0 mm
12:21 AM 28.9°F-1.7°C 14.8°F-9.6°C 55% 2.8 mph NW4.5 kmh NW 4.0 mph6.4 kmh 30.36 in1028.1 mb 0.00 in0.0 mm 0.00 in0.0 mm 0.00 in0.0 mm
12:20 AM 29.1°F-1.6°C 14.9°F-9.5°C 55% 2.7 mph NW4.3 kmh NW 4.0 mph6.4 kmh 30.36 in1028.1 mb 0.00 in0.0 mm 0.00 in0.0 mm 0.00 in0.0 mm
12:19 AM 29.1°F-1.6°C 14.9°F-9.5°C 55% 2.7 mph NW4.3 kmh NW 4.0 mph6.4 kmh 30.36 in1028.1 mb 0.00 in0.0 mm 0.00 in0.0 mm 0.00 in0.0 mm
12:18 AM 28.9°F-1.7°C 14.8°F-9.6°C 55% 2.6 mph NW4.2 kmh NW 4.0 mph6.4 kmh 30.36 in1028.1 mb 0.00 in0.0 mm 0.00 in0.0 mm 0.00 in0.0 mm
12:17 AM 29.1°F-1.6°C 14.9°F-9.5°C 55% 2.5 mph NW4.0 kmh NW 4.0 mph6.4 kmh 30.36 in1028.1 mb 0.00 in0.0 mm 0.00 in0.0 mm 0.00 in0.0 mm
12:16 AM 29.1°F-1.6°C 14.9°F-9.5°C 55% 2.4 mph NW3.9 kmh NW 4.0 mph6.4 kmh 30.36 in1028.1 mb 0.00 in0.0 mm 0.00 in0.0 mm 0.00 in0.0 mm
12:15 AM 29.1°F-1.6°C 14.9°F-9.5°C 55% 2.3 mph NW3.7 kmh NW 4.0 mph6.4 kmh 30.36 in1028.1 mb 0.00 in0.0 mm 0.00 in0.0 mm 0.00 in0.0 mm
12:14 AM 29.1°F-1.6°C 14.9°F-9.5°C 55% 2.1 mph NW3.4 kmh NW 4.0 mph6.4 kmh 30.36 in1028.1 mb 0.00 in0.0 mm 0.00 in0.0 mm 0.00 in0.0 mm
12:13 AM 29.1°F-1.6°C 14.9°F-9.5°C 55% 1.9 mph WNW3.1 kmh WNW 4.0 mph6.4 kmh 30.36 in1028.1 mb 0.00 in0.0 mm 0.00 in0.0 mm 0.00 in0.0 mm
12:12 AM 29.1°F-1.6°C 14.9°F-9.5°C 55% 1.8 mph NW2.9 kmh NW 3.4 mph5.5 kmh 30.36 in1028.1 mb 0.00 in0.0 mm 0.00 in0.0 mm 0.00 in0.0 mm
12:11 AM 29.1°F-1.6°C 14.9°F-9.5°C 55% 2.1 mph NW3.4 kmh NW 4.0 mph6.4 kmh 30.36 in1028.1 mb 0.00 in0.0 mm 0.00 in0.0 mm 0.00 in0.0 mm
12:10 AM 29.3°F-1.5°C 14.7°F-9.6°C 54% 2.5 mph NW4.0 kmh NW 8.1 mph13.0 kmh 30.36 in1028.1 mb 0.00 in0.0 mm 0.00 in0.0 mm 0.00 in0.0 mm
12:09 AM 29.3°F-1.5°C 14.7°F-9.6°C 54% 2.9 mph NW4.7 kmh NW 8.1 mph13.0 kmh 30.36 in1028.1 mb 0.00 in0.0 mm 0.00 in0.0 mm 0.00 in0.0 mm
12:08 AM 29.3°F-1.5°C 14.7°F-9.6°C 54% 3.0 mph NW4.8 kmh NW 8.1 mph13.0 kmh 30.36 in1028.1 mb 0.00 in0.0 mm 0.00 in0.0 mm 0.00 in0.0 mm
12:07 AM 29.3°F-1.5°C 14.7°F-9.6°C 54% 3.1 mph NW5.0 kmh NW 8.1 mph13.0 kmh 30.36 in1028.1 mb 0.00 in0.0 mm 0.00 in0.0 mm 0.00 in0.0 mm
12:06 AM 29.3°F-1.5°C 14.7°F-9.6°C 54% 3.6 mph NW5.8 kmh NW 8.1 mph13.0 kmh 30.36 in1028.1 mb 0.00 in0.0 mm 0.00 in0.0 mm 0.00 in0.0 mm
12:05 AM 29.3°F-1.5°C 14.7°F-9.6°C 54% 3.8 mph WNW6.1 kmh WNW 8.1 mph13.0 kmh 30.36 in1028.1 mb 0.00 in0.0 mm 0.00 in0.0 mm 0.00 in0.0 mm
12:04 AM 29.5°F-1.4°C 14.4°F-9.8°C 53% 4.4 mph NW7.1 kmh NW 8.1 mph13.0 kmh 30.33 in1027.1 mb 0.00 in0.0 mm 0.00 in0.0 mm 0.00 in0.0 mm
12:03 AM 29.5°F-1.4°C 14.4°F-9.8°C 53% 4.4 mph NW7.1 kmh NW 8.1 mph13.0 kmh 30.33 in1027.1 mb 0.00 in0.0 mm 0.00 in0.0 mm 0.00 in0.0 mm
12:02 AM 29.7°F-1.3°C 14.2°F-9.9°C 52% 5.0 mph NW8.0 kmh NW 8.1 mph13.0 kmh 30.33 in1027.1 mb 0.00 in0.0 mm 0.00 in0.0 mm 0.00 in0.0 mm
12:01 AM 30.0°F-1.1°C 14.5°F-9.7°C 52% 4.8 mph NW7.7 kmh NW 8.1 mph13.0 kmh 30.33 in1027.1 mb 0.00 in0.0 mm 0.00 in0.0 mm 0.00 in0.0 mm
12:00 AM 30.0°F-1.1°C 14.5°F-9.7°C 52% 4.7 mph NW7.6 kmh NW 8.1 mph13.0 kmh 30.33 in1027.1 mb 0.00 in0.0 mm 0.00 in0.0 mm 0.00 in0.0 mm